createdAt,value
2023-04-09T00:00:44.090Z,12.77
2023-04-09T00:03:11.064Z,11.37
2023-04-09T00:05:41.292Z,10.80
2023-04-09T00:08:08.573Z,12.70
2023-04-09T00:10:35.677Z,13.57
2023-04-09T00:13:02.635Z,12.17
2023-04-09T00:15:31.664Z,14.87
2023-04-09T00:17:59.670Z,12.87
2023-04-09T00:20:26.813Z,13.77
2023-04-09T00:22:54.158Z,12.60
2023-04-09T00:25:21.152Z,12.90
2023-04-09T00:27:48.168Z,12.20
2023-04-09T00:30:15.080Z,13.83
2023-04-09T00:32:42.480Z,12.60
2023-04-09T00:35:09.668Z,11.63
2023-04-09T00:37:36.587Z,11.57
2023-04-09T00:40:04.390Z,11.20
2023-04-09T00:42:34.831Z,14.43
2023-04-09T00:45:01.968Z,11.73
2023-04-09T00:47:31.015Z,12.47
2023-04-09T00:49:58.372Z,11.87
2023-04-09T00:52:25.740Z,14.00
2023-04-09T00:54:52.984Z,11.67
2023-04-09T00:57:20.409Z,13.73
2023-04-09T00:59:47.256Z,12.80
2023-04-09T01:02:14.208Z,12.37
2023-04-09T01:04:42.554Z,11.50
2023-04-09T01:07:15.773Z,14.33
2023-04-09T01:10:08.215Z,12.50
2023-04-09T01:12:43.598Z,11.23
2023-04-09T01:15:18.235Z,11.03
2023-04-09T01:17:53.272Z,9.67
2023-04-09T01:20:30.550Z,10.20
2023-04-09T01:23:27.860Z,10.33
2023-04-09T01:25:57.717Z,9.27
2023-04-09T01:28:33.142Z,11.83
2023-04-09T01:31:04.096Z,12.77
2023-04-09T01:33:32.548Z,10.23
2023-04-09T01:36:01.742Z,11.43
2023-04-09T01:38:29.052Z,11.17
2023-04-09T01:40:57.548Z,14.73
2023-04-09T01:43:26.243Z,11.77
2023-04-09T01:45:54.705Z,10.13
2023-04-09T01:48:23.028Z,11.80
2023-04-09T01:50:51.486Z,13.63
2023-04-09T01:53:18.603Z,16.40
2023-04-09T01:55:45.661Z,14.33
2023-04-09T01:58:12.688Z,21.60
2023-04-09T02:00:45.707Z,15.00
2023-04-09T02:03:33.130Z,13.60
2023-04-09T02:06:20.326Z,15.40
2023-04-09T02:08:48.857Z,13.07
2023-04-09T02:11:16.631Z,13.40
2023-04-09T02:13:44.223Z,12.97
2023-04-09T02:16:13.914Z,13.60
2023-04-09T02:18:40.914Z,11.90
2023-04-09T02:21:07.906Z,12.00
2023-04-09T02:23:35.103Z,12.53
2023-04-09T02:26:02.429Z,12.57
2023-04-09T02:28:29.314Z,12.57
2023-04-09T02:30:56.307Z,13.77
2023-04-09T02:33:23.469Z,12.27
2023-04-09T02:35:50.367Z,11.90
2023-04-09T02:38:17.270Z,12.57
2023-04-09T02:40:44.159Z,12.27
2023-04-09T02:43:11.238Z,11.60
2023-04-09T02:45:38.116Z,12.43
2023-04-09T02:48:05.292Z,12.10
2023-04-09T02:50:35.285Z,12.63
2023-04-09T02:53:02.944Z,13.07
2023-04-09T02:55:30.020Z,14.20
2023-04-09T02:57:56.960Z,12.70
2023-04-09T03:00:23.931Z,13.47
2023-04-09T03:02:51.010Z,15.67
2023-04-09T03:05:17.980Z,13.43
2023-04-09T03:07:44.912Z,13.97
2023-04-09T03:10:12.073Z,14.37
2023-04-09T03:12:38.977Z,13.83
2023-04-09T03:15:06.682Z,13.53
2023-04-09T03:17:33.627Z,14.77
2023-04-09T03:20:00.698Z,14.77
2023-04-09T03:22:38.676Z,13.87
2023-04-09T03:25:15.509Z,15.73
2023-04-09T03:27:42.721Z,13.50
2023-04-09T03:30:13.549Z,13.53
2023-04-09T03:32:44.375Z,13.93
2023-04-09T03:35:13.284Z,12.57
2023-04-09T03:37:42.255Z,14.73
2023-04-09T03:40:15.575Z,13.80
2023-04-09T03:42:43.670Z,13.50
2023-04-09T03:45:13.093Z,14.57
2023-04-09T03:47:44.242Z,15.13
2023-04-09T03:50:12.300Z,13.47
2023-04-09T03:52:49.567Z,14.23
2023-04-09T03:55:16.592Z,15.17
2023-04-09T03:57:43.488Z,13.00
2023-04-09T04:00:14.854Z,14.83
2023-04-09T04:02:51.563Z,16.10
2023-04-09T04:05:31.481Z,15.30
2023-04-09T04:08:02.571Z,15.87
2023-04-09T04:10:29.952Z,16.50
2023-04-09T04:12:56.926Z,15.90
2023-04-09T04:15:40.044Z,17.23
2023-04-09T04:18:07.149Z,17.13
2023-04-09T04:20:42.376Z,15.50
2023-04-09T04:23:13.051Z,15.67
2023-04-09T04:25:50.898Z,16.03
2023-04-09T04:28:24.550Z,16.97
2023-04-09T04:30:51.628Z,15.90
2023-04-09T04:33:19.163Z,16.90
2023-04-09T04:35:51.407Z,15.43
2023-04-09T04:38:34.655Z,17.50
2023-04-09T04:41:05.770Z,17.40
2023-04-09T04:43:35.989Z,15.90
2023-04-09T04:46:03.198Z,16.97
2023-04-09T04:48:32.063Z,17.83
2023-04-09T04:51:00.298Z,17.57
2023-04-09T04:53:33.595Z,16.57
2023-04-09T04:56:16.047Z,15.97
2023-04-09T04:59:01.304Z,15.27
2023-04-09T05:01:34.395Z,14.33
2023-04-09T05:04:04.197Z,14.70
2023-04-09T05:06:33.718Z,16.20
2023-04-09T05:09:04.887Z,15.33
2023-04-09T05:11:39.816Z,14.07
2023-04-09T05:14:13.351Z,14.87
2023-04-09T05:16:40.617Z,14.23
2023-04-09T05:19:08.499Z,14.43
2023-04-09T05:21:35.693Z,15.33
2023-04-09T05:24:02.958Z,15.90
2023-04-09T05:26:32.509Z,15.07
2023-04-09T05:28:59.358Z,14.93
2023-04-09T05:31:26.669Z,15.37
2023-04-09T05:34:02.396Z,14.63
2023-04-09T05:36:37.455Z,17.50
2023-04-09T05:39:04.417Z,16.27
2023-04-09T05:41:32.769Z,16.37
2023-04-09T05:44:18.665Z,18.70
2023-04-09T05:46:45.918Z,15.60
2023-04-09T05:49:16.391Z,16.20
2023-04-09T05:51:45.353Z,19.47
2023-04-09T05:54:12.567Z,20.17
2023-04-09T05:56:39.473Z,19.97
2023-04-09T05:59:06.397Z,19.37
2023-04-09T06:01:33.481Z,21.13
2023-04-09T06:04:00.697Z,19.70
2023-04-09T06:06:30.394Z,20.00
2023-04-09T06:08:57.252Z,19.93
2023-04-09T06:11:24.204Z,21.47
2023-04-09T06:13:51.882Z,19.63
2023-04-09T06:16:18.987Z,20.10
2023-04-09T06:18:46.921Z,20.70
2023-04-09T06:21:13.818Z,19.97
2023-04-09T06:23:40.886Z,21.50
2023-04-09T06:26:07.752Z,20.20
2023-04-09T06:28:34.712Z,20.33
2023-04-09T06:31:02.057Z,20.77
2023-04-09T06:33:29.079Z,22.43
2023-04-09T06:35:56.404Z,21.43
2023-04-09T06:38:23.282Z,21.90
2023-04-09T06:40:50.458Z,20.43
2023-04-09T06:43:17.377Z,20.80
2023-04-09T06:45:51.546Z,20.63
2023-04-09T06:48:18.489Z,22.07
2023-04-09T06:50:45.752Z,20.40
2023-04-09T06:53:12.642Z,21.80
2023-04-09T06:55:39.646Z,21.87
2023-04-09T06:58:06.798Z,21.17
2023-04-09T07:00:33.706Z,26.23
2023-04-09T07:03:00.877Z,19.07
2023-04-09T07:05:27.924Z,21.27
2023-04-09T07:07:54.816Z,18.87
2023-04-09T07:10:21.753Z,19.67
2023-04-09T07:12:48.620Z,18.93
2023-04-09T07:15:15.566Z,20.23
2023-04-09T07:17:42.894Z,20.93
2023-04-09T07:20:10.478Z,21.93
2023-04-09T07:22:37.426Z,20.97
2023-04-09T07:25:04.584Z,22.07
2023-04-09T07:27:31.705Z,20.57
2023-04-09T07:29:59.761Z,20.20
2023-04-09T07:32:30.828Z,21.43
2023-04-09T07:34:59.472Z,19.27
2023-04-09T07:37:27.135Z,20.47
2023-04-09T07:39:54.065Z,21.90
2023-04-09T07:42:21.194Z,20.40
2023-04-09T07:44:48.045Z,18.80
2023-04-09T07:47:15.067Z,19.47
2023-04-09T07:49:42.245Z,19.53
2023-04-09T07:52:09.224Z,20.53
2023-04-09T07:54:36.144Z,20.47
2023-04-09T07:57:03.393Z,20.83
2023-04-09T07:59:31.533Z,20.27
2023-04-09T08:01:58.889Z,20.60
2023-04-09T08:04:27.271Z,21.33
2023-04-09T08:06:54.384Z,20.83
2023-04-09T08:09:21.659Z,20.00
2023-04-09T08:11:49.830Z,21.47
2023-04-09T08:14:18.085Z,19.33
2023-04-09T08:16:47.364Z,19.30
2023-04-09T08:19:16.405Z,19.13
2023-04-09T08:21:43.946Z,19.83
2023-04-09T08:24:11.850Z,18.57
2023-04-09T08:26:40.133Z,17.43
2023-04-09T08:29:07.984Z,18.93
2023-04-09T08:31:39.057Z,18.57
2023-04-09T08:34:06.689Z,17.80
2023-04-09T08:36:35.381Z,17.77
2023-04-09T08:39:02.968Z,17.13
2023-04-09T08:41:30.180Z,17.87
2023-04-09T08:44:02.720Z,17.53
2023-04-09T08:46:29.551Z,17.37
2023-04-09T08:48:57.218Z,16.03
2023-04-09T08:51:25.014Z,15.93
2023-04-09T08:54:00.781Z,14.73
2023-04-09T08:56:30.893Z,14.80
2023-04-09T08:58:57.820Z,18.40
2023-04-09T09:01:31.362Z,15.17
2023-04-09T09:04:03.872Z,15.47
2023-04-09T09:06:33.693Z,13.80
2023-04-09T09:09:05.617Z,15.67
2023-04-09T09:11:36.952Z,15.97
2023-04-09T09:14:06.481Z,13.60
2023-04-09T09:16:35.666Z,14.00
2023-04-09T09:19:03.313Z,14.67
2023-04-09T09:21:30.685Z,13.50
2023-04-09T09:23:58.296Z,13.63
2023-04-09T09:26:28.850Z,13.40
2023-04-09T09:28:58.961Z,12.53
2023-04-09T09:31:26.593Z,12.53
2023-04-09T09:33:54.152Z,13.70
2023-04-09T09:36:35.112Z,12.43
2023-04-09T09:39:10.341Z,13.40
2023-04-09T09:41:38.032Z,13.87
2023-04-09T09:44:07.345Z,13.67
2023-04-09T09:46:39.370Z,12.47
2023-04-09T09:49:07.166Z,12.67
2023-04-09T09:51:37.259Z,12.53
2023-04-09T09:54:07.069Z,12.00
2023-04-09T09:56:39.530Z,11.40
2023-04-09T09:59:23.285Z,10.97
2023-04-09T10:01:58.989Z,10.00
2023-04-09T10:04:29.579Z,10.83
2023-04-09T10:06:57.975Z,11.67
2023-04-09T10:09:28.073Z,9.63
2023-04-09T10:11:58.025Z,10.40
2023-04-09T10:14:27.387Z,11.37
2023-04-09T10:16:54.425Z,11.30
2023-04-09T10:19:22.325Z,10.27
2023-04-09T10:21:54.762Z,10.90
2023-04-09T10:24:22.856Z,9.57
2023-04-09T10:26:53.736Z,9.10
2023-04-09T10:29:28.577Z,8.63
2023-04-09T10:32:04.583Z,9.30
2023-04-09T10:34:35.678Z,8.67
2023-04-09T10:37:02.942Z,9.03
2023-04-09T10:39:33.288Z,9.70
2023-04-09T10:42:02.537Z,8.90
2023-04-09T10:44:32.257Z,9.70
2023-04-09T10:46:59.630Z,10.13
2023-04-09T10:49:27.360Z,9.50
2023-04-09T10:52:12.082Z,10.33
2023-04-09T10:54:51.009Z,10.37
2023-04-09T10:57:20.930Z,11.03
2023-04-09T10:59:53.680Z,10.13
2023-04-09T11:02:55.268Z,10.07
2023-04-09T11:05:25.885Z,9.27
2023-04-09T11:08:10.700Z,9.40
2023-04-09T11:10:44.017Z,10.67
2023-04-09T11:13:18.594Z,11.43
2023-04-09T11:15:46.049Z,10.40
2023-04-09T11:18:26.656Z,11.33
2023-04-09T11:20:58.185Z,10.97
2023-04-09T11:23:25.975Z,10.07
2023-04-09T11:25:53.832Z,9.57
2023-04-09T11:28:21.450Z,11.70
2023-04-09T11:30:51.551Z,10.50
2023-04-09T11:33:20.044Z,10.07
2023-04-09T11:35:48.333Z,10.73
2023-04-09T11:38:15.593Z,11.10
2023-04-09T11:40:48.541Z,11.17
2023-04-09T11:43:16.727Z,10.33
2023-04-09T11:45:44.846Z,11.13
2023-04-09T11:48:13.036Z,10.27
2023-04-09T11:50:40.715Z,11.07
2023-04-09T11:53:21.229Z,10.80
2023-04-09T11:55:51.445Z,11.83
2023-04-09T11:58:18.655Z,12.80
2023-04-09T12:00:45.916Z,12.03
2023-04-09T12:03:13.595Z,12.87
2023-04-09T12:05:50.500Z,12.67
2023-04-09T12:08:24.822Z,12.23
2023-04-09T12:10:53.966Z,12.93
2023-04-09T12:13:21.212Z,12.67
2023-04-09T12:15:49.842Z,13.33
2023-04-09T12:18:16.892Z,11.57
2023-04-09T12:20:46.681Z,12.57
2023-04-09T12:23:13.964Z,11.23
2023-04-09T12:25:43.031Z,11.47
2023-04-09T12:28:12.467Z,13.47
2023-04-09T12:30:39.514Z,12.23
2023-04-09T12:33:09.547Z,11.27
2023-04-09T12:35:38.383Z,13.67
2023-04-09T12:38:05.693Z,11.77
2023-04-09T12:40:32.660Z,11.07
2023-04-09T12:42:59.567Z,12.77
2023-04-09T12:45:28.032Z,11.40
2023-04-09T12:47:55.274Z,11.87
2023-04-09T12:50:22.413Z,11.30
2023-04-09T12:52:49.312Z,10.87
2023-04-09T12:55:16.866Z,10.50
2023-04-09T12:57:46.937Z,11.17
2023-04-09T13:00:14.429Z,10.70
2023-04-09T13:02:41.713Z,11.07
2023-04-09T13:05:09.210Z,10.67
2023-04-09T13:07:36.213Z,9.90
2023-04-09T13:10:03.626Z,9.83
2023-04-09T13:12:30.627Z,10.43
2023-04-09T13:14:59.243Z,10.50
2023-04-09T13:17:26.452Z,9.33
2023-04-09T13:19:53.691Z,10.93
2023-04-09T13:22:20.832Z,9.67
2023-04-09T13:24:47.748Z,8.87
2023-04-09T13:27:14.840Z,9.57
2023-04-09T13:29:41.793Z,10.33
2023-04-09T13:32:10.863Z,12.50
2023-04-09T13:34:39.603Z,11.53
2023-04-09T13:37:07.081Z,11.07
2023-04-09T13:39:34.122Z,11.07
2023-04-09T13:42:07.131Z,12.47
2023-04-09T13:44:37.088Z,10.93
2023-04-09T13:47:04.041Z,12.00
2023-04-09T13:49:31.074Z,11.00
2023-04-09T13:51:58.388Z,10.63
2023-04-09T13:54:25.249Z,11.20
2023-04-09T13:56:52.340Z,10.27
2023-04-09T13:59:19.262Z,10.20
2023-04-09T14:01:46.187Z,10.33
2023-04-09T14:04:13.307Z,11.10
2023-04-09T14:06:40.508Z,9.90
2023-04-09T14:09:07.463Z,11.27
2023-04-09T14:11:34.373Z,11.57
2023-04-09T14:14:01.297Z,9.90
2023-04-09T14:16:30.392Z,10.27
2023-04-09T14:18:57.930Z,11.13
2023-04-09T14:21:25.250Z,11.73
2023-04-09T14:23:52.360Z,9.57
2023-04-09T14:26:20.745Z,9.83
2023-04-09T14:28:49.278Z,9.17
2023-04-09T14:31:20.258Z,10.20
2023-04-09T14:33:48.638Z,12.27
2023-04-09T14:36:15.859Z,10.40
2023-04-09T14:38:42.796Z,10.70
2023-04-09T14:41:09.946Z,9.80
2023-04-09T14:43:36.905Z,10.93
2023-04-09T14:46:06.369Z,9.70
2023-04-09T14:48:33.383Z,11.03
2023-04-09T14:51:00.303Z,10.40
2023-04-09T14:53:27.243Z,10.13
2023-04-09T14:55:54.136Z,11.03
2023-04-09T14:58:21.542Z,10.50
2023-04-09T15:00:48.908Z,10.67
2023-04-09T15:03:16.122Z,11.23
2023-04-09T15:05:43.144Z,12.33
2023-04-09T15:08:10.179Z,11.73
2023-04-09T15:10:37.476Z,10.70
2023-04-09T15:13:04.399Z,11.20
2023-04-09T15:15:32.401Z,12.00
2023-04-09T15:18:05.559Z,10.60
2023-04-09T15:20:37.315Z,12.00
2023-04-09T15:23:04.311Z,10.90
2023-04-09T15:25:31.309Z,10.80
2023-04-09T15:27:58.926Z,10.53
2023-04-09T15:30:26.484Z,12.47
2023-04-09T15:32:53.454Z,11.60
2023-04-09T15:35:25.069Z,12.30
2023-04-09T15:37:52.583Z,11.63
2023-04-09T15:40:19.717Z,11.13
2023-04-09T15:42:46.686Z,11.60
2023-04-09T15:45:17.473Z,12.00
2023-04-09T15:47:45.093Z,12.63
2023-04-09T15:50:12.680Z,10.50
2023-04-09T15:52:39.748Z,11.73
2023-04-09T15:55:07.171Z,11.60
2023-04-09T15:57:34.164Z,11.80
2023-04-09T16:00:01.141Z,11.60
2023-04-09T16:02:28.149Z,10.53
2023-04-09T16:04:55.649Z,10.93
2023-04-09T16:07:22.548Z,10.57
2023-04-09T16:09:49.597Z,10.43
2023-04-09T16:12:16.755Z,11.40
2023-04-09T16:14:43.636Z,11.20
2023-04-09T16:17:10.636Z,11.87
2023-04-09T16:19:37.598Z,11.90
2023-04-09T16:22:04.485Z,13.00
2023-04-09T16:24:32.347Z,12.33
2023-04-09T16:26:59.435Z,12.13
2023-04-09T16:29:26.382Z,10.97
2023-04-09T16:31:53.375Z,11.70
2023-04-09T16:34:20.530Z,11.30
2023-04-09T16:36:47.488Z,11.67
2023-04-09T16:39:15.522Z,11.87
2023-04-09T16:41:44.324Z,12.30
2023-04-09T16:44:11.228Z,12.13
2023-04-09T16:46:38.183Z,11.67
2023-04-09T16:49:05.163Z,11.23
2023-04-09T16:51:32.106Z,12.57
2023-04-09T16:53:58.984Z,13.60
2023-04-09T16:56:26.042Z,11.73
2023-04-09T16:58:53.104Z,11.47
2023-04-09T17:01:20.484Z,11.90
2023-04-09T17:03:49.438Z,11.83
2023-04-09T17:06:16.634Z,11.07
2023-04-09T17:08:43.617Z,11.23
2023-04-09T17:11:15.019Z,11.23
2023-04-09T17:13:41.998Z,13.03
2023-04-09T17:16:09.094Z,12.00
2023-04-09T17:18:36.203Z,11.40
2023-04-09T17:21:03.401Z,11.83
2023-04-09T17:23:30.463Z,11.87
2023-04-09T17:25:58.183Z,12.30
2023-04-09T17:28:25.138Z,11.37
2023-04-09T17:30:52.165Z,10.53
2023-04-09T17:33:19.013Z,11.53
2023-04-09T17:35:45.909Z,12.57
2023-04-09T17:38:17.223Z,10.10
2023-04-09T17:40:44.124Z,11.90
2023-04-09T17:43:10.989Z,13.77
2023-04-09T17:45:37.891Z,12.40
2023-04-09T17:48:04.877Z,13.20
2023-04-09T17:50:31.807Z,12.00
2023-04-09T17:52:58.701Z,12.10
2023-04-09T17:55:25.592Z,12.70
2023-04-09T17:57:52.526Z,11.77
2023-04-09T18:00:19.405Z,12.97
2023-04-09T18:02:47.054Z,12.20
2023-04-09T18:05:14.365Z,11.23
2023-04-09T18:07:41.446Z,12.63
2023-04-09T18:10:08.624Z,11.37
2023-04-09T18:12:35.745Z,11.40
2023-04-09T18:15:03.604Z,11.37
2023-04-09T18:17:30.810Z,10.23
2023-04-09T18:19:58.441Z,11.27
2023-04-09T18:22:27.403Z,11.73
2023-04-09T18:24:54.403Z,11.13
2023-04-09T18:27:21.693Z,11.40
2023-04-09T18:29:51.430Z,13.23
2023-04-09T18:32:19.815Z,11.50
2023-04-09T18:34:47.728Z,12.83
2023-04-09T18:37:15.377Z,12.03
2023-04-09T18:39:42.297Z,12.67
2023-04-09T18:42:09.514Z,12.27
2023-04-09T18:44:37.644Z,12.23
2023-04-09T18:47:06.012Z,13.10
2023-04-09T18:49:33.489Z,13.00
2023-04-09T18:52:00.713Z,12.13
2023-04-09T18:54:27.850Z,12.03
2023-04-09T18:56:54.782Z,12.63
2023-04-09T18:59:21.920Z,13.00
2023-04-09T19:01:49.029Z,11.60
2023-04-09T19:04:16.035Z,12.90
2023-04-09T19:06:46.233Z,12.57
2023-04-09T19:09:13.134Z,14.33
2023-04-09T19:11:40.066Z,15.03
2023-04-09T19:14:07.012Z,14.37
2023-04-09T19:16:34.000Z,15.80
2023-04-09T19:19:00.928Z,13.77
2023-04-09T19:21:29.013Z,15.10
2023-04-09T19:23:56.305Z,13.87
2023-04-09T19:26:23.229Z,15.97
2023-04-09T19:28:50.114Z,14.13
2023-04-09T19:31:17.115Z,13.83
2023-04-09T19:33:44.123Z,14.67
2023-04-09T19:36:12.875Z,13.70
2023-04-09T19:38:40.118Z,14.30
2023-04-09T19:41:07.033Z,12.77
2023-04-09T19:43:33.981Z,14.30
2023-04-09T19:46:08.604Z,15.07
2023-04-09T19:48:37.335Z,15.33
2023-04-09T19:51:04.481Z,13.33
2023-04-09T19:53:32.801Z,14.53
2023-04-09T19:55:59.758Z,14.23
2023-04-09T19:58:27.292Z,15.07
2023-04-09T20:00:54.956Z,15.97
2023-04-09T20:03:22.431Z,13.73
2023-04-09T20:05:49.438Z,13.63
2023-04-09T20:08:16.650Z,15.63
2023-04-09T20:10:46.401Z,14.27
2023-04-09T20:13:13.638Z,14.37
2023-04-09T20:15:40.755Z,13.90
2023-04-09T20:18:08.052Z,14.27
2023-04-09T20:20:35.014Z,13.37
2023-04-09T20:23:01.949Z,14.60
2023-04-09T20:25:34.340Z,13.90
2023-04-09T20:28:02.548Z,14.07
2023-04-09T20:30:33.722Z,14.57
2023-04-09T20:33:01.455Z,14.57
2023-04-09T20:35:28.407Z,15.57
2023-04-09T20:37:55.612Z,13.77
2023-04-09T20:40:22.583Z,15.90
2023-04-09T20:42:49.711Z,15.83
2023-04-09T20:45:16.607Z,15.40
2023-04-09T20:47:43.594Z,14.07
2023-04-09T20:50:11.101Z,15.37
2023-04-09T20:52:38.383Z,14.43
2023-04-09T20:55:06.394Z,15.40
2023-04-09T20:57:33.774Z,14.73
2023-04-09T21:00:00.954Z,16.17
2023-04-09T21:02:27.943Z,13.90
2023-04-09T21:04:54.931Z,13.97
2023-04-09T21:07:21.803Z,15.67
2023-04-09T21:09:49.353Z,14.97
2023-04-09T21:12:16.223Z,14.17
2023-04-09T21:14:43.174Z,16.07
2023-04-09T21:17:10.144Z,15.70
2023-04-09T21:19:37.089Z,15.77
2023-04-09T21:22:04.288Z,15.63
2023-04-09T21:24:35.246Z,14.70
2023-04-09T21:27:04.973Z,14.80
2023-04-09T21:29:31.808Z,15.33
2023-04-09T21:31:58.728Z,14.70
2023-04-09T21:34:25.625Z,15.47
2023-04-09T21:36:54.074Z,15.33
2023-04-09T21:39:21.188Z,16.83
2023-04-09T21:41:48.089Z,16.20
2023-04-09T21:44:14.980Z,16.13
2023-04-09T21:46:42.202Z,14.50
2023-04-09T21:49:09.181Z,15.90
2023-04-09T21:51:36.257Z,16.47
2023-04-09T21:54:04.558Z,16.17
2023-04-09T21:56:32.602Z,16.27
2023-04-09T21:59:00.855Z,14.67
2023-04-09T22:01:30.487Z,15.27
2023-04-09T22:04:01.909Z,14.97
2023-04-09T22:06:29.188Z,16.23
2023-04-09T22:08:58.037Z,15.97
2023-04-09T22:11:29.330Z,15.37
2023-04-09T22:13:57.157Z,13.77
2023-04-09T22:16:25.154Z,14.77
2023-04-09T22:18:53.520Z,13.37
2023-04-09T22:21:20.802Z,13.77
2023-04-09T22:23:47.712Z,15.40
2023-04-09T22:26:14.610Z,12.63
2023-04-09T22:28:41.476Z,16.40
2023-04-09T22:31:08.632Z,15.00
2023-04-09T22:33:35.555Z,13.83
2023-04-09T22:36:02.476Z,16.63
2023-04-09T22:38:29.347Z,14.93
2023-04-09T22:40:56.220Z,14.87
2023-04-09T22:43:23.304Z,17.87
2023-04-09T22:45:54.681Z,16.07
2023-04-09T22:48:22.930Z,13.90
2023-04-09T22:50:50.519Z,14.87
2023-04-09T22:53:21.270Z,13.93
2023-04-09T22:55:51.233Z,15.10
2023-04-09T22:58:18.747Z,14.60
2023-04-09T23:00:47.060Z,15.60
2023-04-09T23:03:14.346Z,14.07
2023-04-09T23:05:41.949Z,14.60
2023-04-09T23:08:09.479Z,14.93
2023-04-09T23:10:36.500Z,15.47
2023-04-09T23:13:03.593Z,16.13
2023-04-09T23:15:30.477Z,15.87
2023-04-09T23:17:57.369Z,14.90
2023-04-09T23:20:24.346Z,13.90
2023-04-09T23:22:51.224Z,14.40
2023-04-09T23:25:18.555Z,15.23
2023-04-09T23:27:46.621Z,14.83
2023-04-09T23:30:17.003Z,14.93
2023-04-09T23:32:48.298Z,14.23
2023-04-09T23:35:15.664Z,14.80
2023-04-09T23:37:43.113Z,16.20
2023-04-09T23:40:11.226Z,15.90
2023-04-09T23:42:38.299Z,15.77
2023-04-09T23:45:06.669Z,16.83
2023-04-09T23:47:35.767Z,16.73
2023-04-09T23:50:07.625Z,17.30
2023-04-09T23:52:37.309Z,14.93
2023-04-09T23:55:08.951Z,15.70
2023-04-09T23:57:35.977Z,16.27
